createdAt,value
2022-10-17T06:33:30.000Z,22.528799
2022-10-17T06:33:50.000Z,22.550400
2022-10-17T06:34:11.000Z,23.353201
2022-10-17T06:34:31.000Z,23.644800
2022-10-17T06:34:51.000Z,23.443199
2022-10-17T06:35:11.000Z,21.704399
2022-10-17T06:35:32.000Z,21.337200
2022-10-17T06:35:52.000Z,22.327200
2022-10-17T06:36:12.000Z,22.917601
2022-10-17T06:36:32.000Z,21.693600
2022-10-17T06:36:53.000Z,20.998800
2022-10-17T06:37:13.000Z,19.908001
2022-10-17T06:37:33.000Z,19.025999
2022-10-17T06:37:54.000Z,19.544399
2022-10-17T06:38:14.000Z,19.245600
2022-10-17T06:38:34.000Z,20.761200
2022-10-17T06:38:54.000Z,4.309200
2022-10-17T06:39:15.000Z,8.395200
2022-10-17T06:39:35.000Z,10.832400
2022-10-17T06:39:55.000Z,17.877600
2022-10-17T06:40:15.000Z,7.390800
2022-10-17T06:40:36.000Z,0.691200
2022-10-17T06:40:56.000Z,0.234000
2022-10-17T06:41:16.000Z,21.059999
2022-10-17T06:41:36.000Z,28.429199
2022-10-17T06:41:57.000Z,32.922001
2022-10-17T06:42:17.000Z,14.403600
2022-10-17T06:42:37.000Z,13.762800
2022-10-17T06:42:57.000Z,2.674800
2022-10-17T06:43:18.000Z,0.320400
2022-10-17T06:43:38.000Z,0.090000
2022-10-17T06:43:58.000Z,1.576800
2022-10-17T06:44:18.000Z,0.223200
2022-10-17T13:29:30.000Z,20.761200
2022-10-17T13:29:50.000Z,10.843200
2022-10-17T13:30:15.000Z,1.944000
2022-10-17T13:30:46.000Z,30.765600
2022-10-17T13:31:07.000Z,10.951200
2022-10-17T13:31:27.000Z,3.585600
2022-10-17T13:31:53.000Z,19.778400
2022-10-17T13:32:45.000Z,19.047600
2022-10-17T13:33:05.000Z,22.928400
2022-10-17T13:33:25.000Z,20.206800
2022-10-17T13:33:45.000Z,21.528000
2022-10-17T13:34:06.000Z,20.250000
2022-10-17T13:34:26.000Z,2.757600
2022-10-17T13:34:46.000Z,8.744400
2022-10-17T13:35:06.000Z,12.718800
2022-10-17T13:35:27.000Z,16.038000
2022-10-17T13:35:47.000Z,18.291599
2022-10-17T13:36:07.000Z,18.118799
2022-10-17T13:36:28.000Z,19.108801
2022-10-17T13:36:48.000Z,18.079201
2022-10-17T13:37:08.000Z,18.075600
2022-10-17T13:37:28.000Z,16.790400
2022-10-17T13:37:49.000Z,16.091999
2022-10-17T13:38:09.000Z,15.174000
2022-10-17T13:38:29.000Z,16.826401
2022-10-17T13:38:49.000Z,15.120000
2022-10-17T13:39:10.000Z,15.030000
2022-10-17T13:39:30.000Z,15.058800
2022-10-17T13:39:50.000Z,13.939200
2022-10-17T13:40:10.000Z,13.820400
2022-10-17T13:40:31.000Z,14.256000
2022-10-17T13:40:51.000Z,14.457600
2022-10-17T13:41:11.000Z,15.480000
2022-10-17T13:41:31.000Z,14.968800
2022-10-17T13:41:52.000Z,15.094800
2022-10-17T13:42:12.000Z,0.237600
2022-10-17T13:42:32.000Z,0.723600
2022-10-17T13:42:52.000Z,14.076000
2022-10-17T13:43:13.000Z,4.244400
2022-10-17T13:43:33.000Z,0.536400
2022-10-17T13:43:53.000Z,1.062000
2022-10-17T13:44:14.000Z,9.277200
2022-10-17T13:44:34.000Z,11.649600
2022-10-17T13:44:54.000Z,17.481600
2022-10-17T13:45:14.000Z,17.582399
2022-10-17T13:45:35.000Z,8.809200
2022-10-17T13:45:55.000Z,6.620400
2022-10-17T13:46:15.000Z,2.646000
2022-10-17T13:46:35.000Z,14.378400
2022-10-17T13:46:56.000Z,15.703200
2022-10-17T13:47:16.000Z,14.850000
2022-10-17T13:47:36.000Z,10.454400
2022-10-17T13:47:57.000Z,7.869600
2022-10-17T13:48:17.000Z,13.464000
2022-10-17T13:48:37.000Z,15.649200
2022-10-17T13:48:57.000Z,0.900000
2022-10-17T13:49:18.000Z,11.980800
2022-10-17T13:49:38.000Z,14.230800
2022-10-17T13:49:58.000Z,5.878800
2022-10-17T13:50:18.000Z,2.224800
2022-10-17T13:50:39.000Z,2.826000
2022-10-17T13:50:59.000Z,2.541600
2022-10-17T13:51:19.000Z,0.594000
2022-10-17T13:51:40.000Z,1.119600
2022-10-17T13:52:00.000Z,0.403200
2022-10-17T13:52:20.000Z,0.882000
2022-10-17T13:52:20.000Z,0.882000
2022-10-17T14:01:55.000Z,0.381600
2022-10-17T14:02:15.000Z,4.910400
2022-10-17T14:02:35.000Z,3.531600
2022-10-17T14:02:55.000Z,0.586800
2022-10-17T14:03:16.000Z,0.122400
2022-10-17T14:03:36.000Z,0.367200
2022-10-17T14:03:56.000Z,0.568800
2022-10-17T14:04:05.000Z,0.900000
2022-10-17T14:13:02.000Z,0.230400
2022-10-17T14:13:23.000Z,1.231200
2022-10-17T14:13:43.000Z,0.954000
2022-10-17T14:13:52.000Z,0.709200
2022-10-17T14:22:44.000Z,1.249200
2022-10-17T14:23:04.000Z,0.828000
2022-10-17T14:23:24.000Z,0.043200
2022-10-17T14:23:34.000Z,0.997200
2022-10-17T14:32:33.000Z,0.486000
2022-10-17T14:32:53.000Z,0.504000
2022-10-17T14:33:14.000Z,0.352800
2022-10-17T14:33:23.000Z,0.234000
2022-10-17T14:42:13.000Z,0.982800
2022-10-17T14:42:34.000Z,1.825200
2022-10-17T14:42:54.000Z,0.932400
2022-10-17T14:43:04.000Z,0.716400
2022-10-17T14:52:08.000Z,1.792800
2022-10-17T14:52:28.000Z,1.209600
2022-10-17T14:52:49.000Z,1.537200
2022-10-17T14:52:58.000Z,2.530800
2022-10-17T14:59:29.000Z,1.479600
2022-10-17T14:59:50.000Z,2.034000
2022-10-17T15:00:10.000Z,0.241200
2022-10-17T15:00:30.000Z,5.364000
2022-10-17T15:00:50.000Z,1.551600
2022-10-17T15:01:00.000Z,1.980000
2022-10-17T15:09:54.000Z,0.766800
2022-10-17T15:10:14.000Z,1.494000
2022-10-17T15:10:35.000Z,1.018800
2022-10-17T15:10:54.000Z,0.489600
2022-10-17T15:19:56.000Z,0.752400
2022-10-17T15:20:16.000Z,0.687600
2022-10-17T15:20:37.000Z,1.468800
2022-10-17T15:20:57.000Z,0.478800
2022-10-17T15:21:06.000Z,1.022400
2022-10-17T15:30:14.000Z,1.033200
2022-10-17T15:30:34.000Z,2.253600
2022-10-17T15:30:54.000Z,1.317600
2022-10-17T15:31:04.000Z,1.432800
2022-10-17T15:40:38.000Z,2.437200
2022-10-17T15:40:58.000Z,0.788400
2022-10-17T15:41:19.000Z,2.527200
2022-10-17T15:41:28.000Z,2.026800
2022-10-17T15:51:03.000Z,2.044800
2022-10-17T15:51:23.000Z,2.008800
2022-10-17T15:51:43.000Z,0.601200
2022-10-17T15:51:53.000Z,0.763200
